Time;durP1;ratioP1;P1;durP2;ratioP2;P2;SDS_P1;SDS_P2;PMS_P1;PMS_P2;Temp;Humidity;BMP_temperature;BMP_pressure;BME280_temperature;BME280_humidity;BME280_pressure;Samples;Min_cycle;Max_cycle;Signal;HPM_P1;HPM_P2
2022/10/23 00:01:20;;;;;;;23.38;12.27;;;;;;;;;;5034702;28;20033;-62
2022/10/23 00:03:46;;;;;;;24.20;12.88;;;;;;;;;;5037930;28;20159;-61
2022/10/23 00:06:13;;;;;;;19.92;11.52;;;9.40;99.90;;;;;;5032673;28;20061;-61
2022/10/23 00:08:39;;;;;;;22.05;12.38;;;10.30;99.90;;;;;;5019538;28;20507;-62
2022/10/23 00:11:09;;;;;;;19.10;11.27;;;;;;;;;;5030331;28;20034;-62
2022/10/23 00:13:35;;;;;;;22.10;12.05;;;;;;;;;;5034979;28;20033;-62
2022/10/23 00:16:01;;;;;;;17.35;11.77;;;;;;;;;;5019660;28;20044;-61
2022/10/23 00:18:27;;;;;;;20.52;12.43;;;;;;;;;;5035793;28;20037;-61
2022/10/23 00:20:53;;;;;;;25.35;12.85;;;;;;;;;;5035991;28;20041;-62
2022/10/23 00:23:18;;;;;;;23.05;12.52;;;9.80;99.90;;;;;;5015438;28;20048;-61
2022/10/23 00:25:44;;;;;;;19.33;11.52;;;9.70;99.90;;;;;;5036652;28;20036;-62
2022/10/23 00:28:10;;;;;;;21.67;13.27;;;;;;;;;;5029778;28;20049;-62
2022/10/23 00:30:36;;;;;;;21.05;11.63;;;;;;;;;;5037274;28;20072;-60
2022/10/23 00:33:02;;;;;;;21.13;11.60;;;;;;;;;;5037651;28;20517;-62
2022/10/23 00:35:28;;;;;;;21.38;11.80;;;;;;;;;;5018342;28;20049;-62
2022/10/23 00:37:54;;;;;;;25.63;13.93;;;;;;;;;;5036312;28;20041;-59
2022/10/23 00:40:20;;;;;;;22.63;13.57;;;;;;;;;;5035814;28;20045;-59
2022/10/23 00:42:46;;;;;;;21.90;12.10;;;9.80;99.90;;;;;;5041932;28;20041;-58
2022/10/23 00:45:15;;;;;;;19.70;12.10;;;;;;;;;;5043106;28;20038;-60
2022/10/23 00:47:41;;;;;;;24.58;12.45;;;;;;;;;;5037931;28;20032;-60
2022/10/23 00:50:07;;;;;;;26.35;12.52;;;;;;;;;;5040957;28;20038;-61
2022/10/23 00:52:35;;;;;;;28.65;12.75;;;;;;;;;;5041783;28;20044;-59
2022/10/23 00:55:01;;;;;;;17.60;10.57;;;9.70;99.90;;;;;;5041261;28;20037;-60
2022/10/23 00:57:27;;;;;;;33.25;14.73;;;;;;;;;;5038727;28;20091;-61
2022/10/23 00:59:53;;;;;;;25.30;13.73;;;9.60;99.90;;;;;;5050272;28;20047;-60
2022/10/23 01:02:19;;;;;;;31.20;15.07;;;9.70;99.90;;;;;;5052714;28;20029;-61
2022/10/23 01:04:48;;;;;;;28.13;14.60;;;;;;;;;;5040676;28;20037;-62
2022/10/23 01:07:17;;;;;;;23.20;11.77;;;;;;;;;;5051593;28;20509;-61
2022/10/23 01:10:01;;;;;;;33.97;14.27;;;;;;;;;;5037207;28;20041;-61
2022/10/23 01:12:44;;;;;;;27.67;13.02;;;9.50;99.90;;;;;;5038565;28;20041;-61
2022/10/23 01:15:17;;;;;;;28.98;11.00;;;9.40;99.90;;;;;;5023671;28;20041;-60
2022/10/23 01:17:46;;;;;;;40.97;12.82;;;;;;;;;;5033537;28;20041;-60
2022/10/23 01:20:47;;;;;;;62.72;16.30;;;;;;;;;;5039916;28;20116;-61
2022/10/23 01:23:42;;;;;;;63.67;15.63;;;9.10;99.90;;;;;;4979171;28;20135;-60
2022/10/23 01:26:19;;;;;;;58.63;16.88;;;9.70;99.90;;;;;;4963960;28;20051;-61
2022/10/23 01:28:45;;;;;;;47.45;17.63;;;9.20;99.90;;;;;;5037291;28;20052;-61
2022/10/23 01:31:14;;;;;;;54.67;16.45;;;;;;;;;;5046476;28;20033;-61
2022/10/23 01:33:52;;;;;;;44.40;17.73;;;;;;;;;;5038532;28;20040;-61
2022/10/23 01:36:20;;;;;;;38.17;15.10;;;;;;;;;;5052645;28;20037;-61
2022/10/23 01:38:57;;;;;;;58.90;17.58;;;9.30;99.90;;;;;;5048857;28;20033;-61
2022/10/23 01:41:54;;;;;;;40.92;14.63;;;9.10;99.90;;;;;;5037827;28;20037;-62
2022/10/23 01:44:27;;;;;;;46.65;15.13;;;;;;;;;;5036395;28;20171;-61
2022/10/23 01:46:54;;;;;;;43.60;17.42;;;9.70;99.90;;;;;;5042811;28;20453;-61
2022/10/23 01:49:22;;;;;;;62.90;17.00;;;;;;;;;;5046084;28;20044;-60
2022/10/23 01:51:50;;;;;;;39.42;16.70;;;;;;;;;;5032589;28;20168;-61
2022/10/23 01:54:18;;;;;;;37.67;14.18;;;;;;;;;;5045543;28;20487;-61
2022/10/23 01:56:46;;;;;;;33.17;16.77;;;;;;;;;;5045935;28;20044;-63
2022/10/23 01:59:18;;;;;;;62.08;19.35;;;;;;;;;;5043265;28;20033;-59
2022/10/23 02:01:48;;;;;;;41.90;15.30;;;8.90;99.90;;;;;;5043602;28;20459;-60
2022/10/23 02:04:17;;;;;;;47.63;14.45;;;;;;;;;;5039176;28;20040;-59
2022/10/23 02:06:43;;;;;;;59.03;17.42;;;;;;;;;;5041607;28;20475;-61
2022/10/23 02:09:09;;;;;;;30.60;15.60;;;9.00;99.90;;;;;;5037590;28;20033;-61
2022/10/23 02:11:39;;;;;;;21.17;12.50;;;;;;;;;;5025009;28;20072;-61
2022/10/23 02:14:19;;;;;;;63.72;18.88;;;9.20;99.90;;;;;;5043879;28;20038;-61
2022/10/23 02:16:52;;;;;;;49.80;18.63;;;9.20;99.90;;;;;;5040844;28;20041;-61
2022/10/23 02:19:28;;;;;;;27.60;15.18;;;;;;;;;;5035668;28;20545;-61
2022/10/23 02:22:21;;;;;;;38.40;16.98;;;9.30;99.90;;;;;;5040112;28;20044;-61
2022/10/23 02:25:00;;;;;;;57.63;21.92;;;;;;;;;;5030734;28;20041;-59
2022/10/23 02:27:39;;;;;;;48.47;22.00;;;9.00;99.90;;;;;;5037422;28;20041;-60
2022/10/23 02:30:08;;;;;;;55.72;20.95;;;9.00;99.90;;;;;;5034263;28;20065;-61
2022/10/23 02:32:34;;;;;;;37.58;16.65;;;;;;;;;;5035315;28;20039;-61
2022/10/23 02:35:01;;;;;;;52.85;21.60;;;;;;;;;;5043957;28;20041;-59
2022/10/23 02:37:27;;;;;;;35.53;16.73;;;;;;;;;;5046302;28;20039;-61
2022/10/23 02:39:53;;;;;;;50.63;21.60;;;;;;;;;;5043807;28;20062;-58
2022/10/23 02:42:28;;;;;;;120.35;27.02;;;9.20;99.90;;;;;;5039076;28;20571;-61
2022/10/23 02:45:23;;;;;;;89.28;28.25;;;9.70;99.90;;;;;;5040540;28;21842;-60
2022/10/23 02:47:52;;;;;;;32.67;16.13;;;9.60;99.90;;;;;;5033648;28;20056;-61
2022/10/23 02:50:46;;;;;;;70.65;22.45;;;9.10;99.90;;;;;;5028300;28;20040;-62
2022/10/23 02:53:25;;;;;;;63.40;22.92;;;;;;;;;;5051160;28;20037;-59
2022/10/23 02:56:00;;;;;;;43.00;19.48;;;;;;;;;;5047708;28;20068;-60
2022/10/23 02:58:34;;;;;;;49.28;21.10;;;9.10;99.90;;;;;;5035308;28;20041;-63
2022/10/23 03:01:14;;;;;;;70.57;23.93;;;;;;;;;;5036225;28;20372;-60
2022/10/23 03:03:51;;;;;;;65.22;22.63;;;;;;;;;;5038234;28;20568;-59
2022/10/23 03:06:17;;;;;;;36.13;16.35;;;;;;;;;;5038382;28;20041;-59
2022/10/23 03:08:48;;;;;;;54.40;21.10;;;9.20;99.90;;;;;;5039534;28;20450;-60
2022/10/23 03:11:17;;;;;;;89.13;21.80;;;;;;;;;;5036897;28;20025;-61
2022/10/23 03:13:43;;;;;;;66.60;18.85;;;;;;;;;;5033677;28;20037;-60
2022/10/23 03:16:09;;;;;;;86.50;16.40;;;9.20;99.90;;;;;;5040011;28;20044;-61
2022/10/23 03:18:35;;;;;;;167.50;25.15;;;;;;;;;;5023257;28;20434;-61
2022/10/23 03:21:01;;;;;;;61.40;14.88;;;9.10;99.90;;;;;;5036730;28;20453;-61
2022/10/23 03:23:26;;;;;;;83.47;18.83;;;9.10;99.90;;;;;;5034727;28;20029;-62
2022/10/23 03:25:53;;;;;;;74.57;22.40;;;;;;;;;;5034123;28;20087;-62
2022/10/23 03:28:19;;;;;;;70.80;18.80;;;;;;;;;;5041410;28;20414;-61
2022/10/23 03:30:45;;;;;;;62.65;22.17;;;;;;;;;;5033611;28;20037;-62
2022/10/23 03:33:11;;;;;;;84.47;22.67;;;;;;;;;;5040908;28;20188;-61
2022/10/23 03:35:37;;;;;;;52.88;22.58;;;;;;;;;;5033783;28;20116;-61
2022/10/23 03:38:03;;;;;;;73.05;23.95;;;;;;;;;;5036510;28;20047;-60
2022/10/23 03:40:28;;;;;;;39.00;16.95;;;9.00;99.90;;;;;;5034322;28;20247;-61
2022/10/23 03:42:54;;;;;;;31.52;16.30;;;;;;;;;;5034493;28;20041;-62
2022/10/23 03:45:20;;;;;;;145.27;31.98;;;;;;;;;;5041849;28;20620;-62
2022/10/23 03:47:47;;;;;;;67.13;23.02;;;9.20;99.90;;;;;;5033232;28;20053;-61
2022/10/23 03:50:13;;;;;;;41.70;16.95;;;9.10;99.90;;;;;;5040129;28;20052;-61
2022/10/23 03:52:39;;;;;;;40.17;14.63;;;9.20;99.90;;;;;;5042956;28;20064;-61
2022/10/23 03:55:05;;;;;;;59.58;20.40;;;9.20;99.90;;;;;;5022205;28;20119;-61
2022/10/23 03:57:31;;;;;;;62.60;20.15;;;9.20;99.90;;;;;;5022571;28;20037;-62
2022/10/23 03:59:57;;;;;;;27.42;13.57;;;;;;;;;;5037357;28;20037;-62
2022/10/23 04:02:23;;;;;;;132.45;26.10;;;;;;;;;;5039062;28;20039;-62
2022/10/23 04:04:49;;;;;;;46.17;19.00;;;9.20;99.90;;;;;;5036912;28;20402;-62
2022/10/23 04:07:15;;;;;;;30.73;15.73;;;;;;;;;;5031606;28;20125;-61
2022/10/23 04:09:41;;;;;;;21.35;13.82;;;;;;;;;;5019617;28;20041;-60
2022/10/23 04:12:08;;;;;;;31.20;16.85;;;9.30;99.90;;;;;;5038015;28;20029;-61
2022/10/23 04:14:34;;;;;;;27.98;16.55;;;;;;;;;;5019432;28;20040;-62
2022/10/23 04:17:00;;;;;;;24.55;15.27;;;9.50;99.90;;;;;;5034203;28;20037;-63
2022/10/23 04:19:26;;;;;;;31.10;18.15;;;9.60;99.90;;;;;;5034895;28;20037;-61
2022/10/23 04:21:52;;;;;;;29.02;16.80;;;;;;;;;;5035475;28;20503;-62
2022/10/23 04:24:17;;;;;;;31.40;17.38;;;9.60;99.90;;;;;;5038876;28;20033;-60
2022/10/23 04:26:43;;;;;;;37.03;20.35;;;;;;;;;;5044386;28;20430;-61
2022/10/23 04:29:09;;;;;;;32.08;18.92;;;;;;;;;;5045086;28;20037;-62
2022/10/23 04:31:35;;;;;;;30.83;18.05;;;;;;;;;;5038364;28;20033;-60
2022/10/23 04:34:01;;;;;;;26.27;15.95;;;;;;;;;;5050819;28;20597;-58
2022/10/23 04:36:27;;;;;;;32.92;17.92;;;;;;;;;;5045476;28;20040;-60
2022/10/23 04:38:53;;;;;;;41.05;21.15;;;9.90;99.90;;;;;;5037765;28;20048;-59
2022/10/23 04:41:18;;;;;;;35.30;19.05;;;9.90;99.90;;;;;;5038579;28;20029;-60
2022/10/23 04:43:44;;;;;;;30.30;16.58;;;9.90;99.90;;;;;;5036574;28;20045;-62
2022/10/23 04:46:10;;;;;;;28.05;17.15;;;;;;;;;;5043850;28;20055;-58
2022/10/23 04:48:36;;;;;;;32.45;18.75;;;;;;;;;;5037006;28;20048;-60
2022/10/23 04:51:03;;;;;;;42.30;22.35;;;;;;;;;;5042760;28;20082;-60
2022/10/23 04:53:29;;;;;;;43.65;20.63;;;9.70;99.90;;;;;;5037397;28;20399;-61
2022/10/23 04:55:56;;;;;;;28.40;17.15;;;;;;;;;;5021237;28;20036;-59
2022/10/23 04:58:22;;;;;;;40.13;21.63;;;9.70;99.90;;;;;;5045210;28;20037;-61
2022/10/23 05:00:49;;;;;;;36.72;19.60;;;;;;;;;;5041480;28;20147;-59
2022/10/23 05:03:16;;;;;;;30.67;18.30;;;;;;;;;;5037393;28;20416;-61
2022/10/23 05:05:42;;;;;;;38.58;21.23;;;;;;;;;;5039332;28;20458;-62
2022/10/23 05:08:08;;;;;;;26.90;16.45;;;9.70;99.90;;;;;;5035662;28;20111;-62
2022/10/23 05:10:34;;;;;;;44.30;23.88;;;9.50;99.90;;;;;;5039049;28;20112;-60
2022/10/23 05:12:59;;;;;;;35.97;21.17;;;9.50;99.90;;;;;;5042992;28;20112;-59
2022/10/23 05:15:25;;;;;;;52.92;26.40;;;9.60;99.90;;;;;;5041373;28;20056;-60
2022/10/23 05:17:53;;;;;;;34.95;20.58;;;;;;;;;;5023228;28;20087;-61
2022/10/23 05:20:21;;;;;;;44.83;22.88;;;;;;;;;;5036709;28;20396;-60
2022/10/23 05:22:50;;;;;;;35.28;20.73;;;9.30;99.90;;;;;;5039738;28;20146;-62
2022/10/23 05:25:16;;;;;;;27.30;18.02;;;9.50;99.90;;;;;;5035562;28;20503;-61
2022/10/23 05:27:41;;;;;;;64.88;28.23;;;9.40;99.90;;;;;;5021571;28;20046;-61
2022/10/23 05:30:08;;;;;;;35.65;19.80;;;9.30;99.90;;;;;;5041352;28;20037;-61
2022/10/23 05:32:34;;;;;;;38.00;21.20;;;;;;;;;;5020404;28;20072;-60
2022/10/23 05:35:09;;;;;;;53.25;26.00;;;9.90;99.90;;;;;;5033121;28;20037;-61
2022/10/23 05:37:40;;;;;;;71.72;31.27;;;9.10;99.90;;;;;;5040259;28;20457;-61
2022/10/23 05:40:07;;;;;;;47.42;25.65;;;9.30;99.90;;;;;;5038568;28;20068;-60
2022/10/23 05:42:32;;;;;;;62.70;30.10;;;9.30;99.90;;;;;;5043615;28;20033;-61
2022/10/23 05:44:58;;;;;;;44.60;25.58;;;;;;;;;;5041895;28;20036;-63
2022/10/23 05:47:25;;;;;;;38.80;22.58;;;;;;;;;;5038219;28;20045;-61
2022/10/23 05:49:51;;;;;;;62.13;29.60;;;;;;;;;;5038018;28;20095;-60
2022/10/23 05:52:19;;;;;;;39.63;23.73;;;;;;;;;;5037513;28;20456;-60
2022/10/23 05:54:45;;;;;;;53.22;26.38;;;;;;;;;;5036472;28;20045;-59
2022/10/23 05:57:10;;;;;;;37.15;21.55;;;9.20;99.90;;;;;;5039890;28;20549;-60
2022/10/23 05:59:36;;;;;;;37.05;23.33;;;9.30;99.90;;;;;;5050878;28;20041;-61
2022/10/23 06:02:01;;;;;;;55.03;28.45;;;9.40;99.90;;;;;;5046212;28;20461;-61
2022/10/23 06:04:27;;;;;;;38.45;23.63;;;;;;;;;;5047884;28;20055;-58
2022/10/23 06:06:54;;;;;;;54.25;28.42;;;;;;;;;;5047762;28;20096;-59
2022/10/23 06:09:20;;;;;;;56.13;30.73;;;;;;;;;;5032078;28;20517;-60
2022/10/23 06:11:46;;;;;;;61.53;29.85;;;;;;;;;;5048098;28;20398;-61
2022/10/23 06:14:12;;;;;;;58.00;31.33;;;;;;;;;;5048319;28;20056;-59
2022/10/23 06:16:38;;;;;;;52.55;29.20;;;;;;;;;;5048404;28;20395;-60
2022/10/23 06:19:04;;;;;;;40.00;24.35;;;9.50;99.90;;;;;;5046192;28;20040;-60
2022/10/23 06:21:30;;;;;;;78.65;37.17;;;;;;;;;;5043433;28;20044;-59
2022/10/23 06:23:56;;;;;;;70.47;35.13;;;;;;;;;;5038170;28;20118;-60
2022/10/23 06:26:21;;;;;;;50.28;28.30;;;9.40;99.90;;;;;;5039574;28;20029;-61
2022/10/23 06:28:47;;;;;;;41.83;25.75;;;;;;;;;;5049896;28;20041;-60
2022/10/23 06:31:14;;;;;;;43.35;25.38;;;;;;;;;;5048385;28;20055;-61
2022/10/23 06:33:41;;;;;;;55.55;29.75;;;;;;;;;;5026095;28;20143;-61
2022/10/23 06:36:09;;;;;;;60.60;32.13;;;9.50;99.90;;;;;;5041837;28;20108;-60
2022/10/23 06:38:39;;;;;;;38.88;23.42;;;9.40;99.90;;;;;;5041245;28;20051;-61
2022/10/23 06:41:09;;;;;;;41.33;26.20;;;9.20;99.90;;;;;;5019299;28;20091;-64
2022/10/23 06:43:35;;;;;;;44.25;26.00;;;9.50;99.90;;;;;;5050428;28;20033;-61
2022/10/23 06:46:02;;;;;;;52.55;31.25;;;9.10;99.90;;;;;;5045445;28;20037;-62
2022/10/23 06:48:28;;;;;;;41.63;25.73;;;;;;;;;;5038494;28;20066;-60
2022/10/23 06:50:55;;;;;;;43.33;25.30;;;;;;;;;;5047067;28;20080;-61
2022/10/23 06:53:23;;;;;;;55.90;31.38;;;9.80;99.90;;;;;;5036405;28;20116;-61
2022/10/23 06:55:49;;;;;;;45.25;27.60;;;;;;;;;;5038524;28;20415;-61
2022/10/23 06:58:15;;;;;;;55.20;31.30;;;9.80;99.90;;;;;;5037982;28;20041;-58
2022/10/23 07:00:41;;;;;;;42.58;26.35;;;;;;;;;;5038607;28;20087;-60
2022/10/23 07:03:07;;;;;;;38.88;24.55;;;10.10;99.90;;;;;;5013265;28;20480;-61
2022/10/23 07:05:34;;;;;;;49.90;28.77;;;;;;;;;;5038444;28;20037;-61
2022/10/23 07:08:00;;;;;;;47.65;27.83;;;;;;;;;;5038421;28;20439;-60
2022/10/23 07:10:27;;;;;;;43.00;26.17;;;;;;;;;;5018858;28;20090;-61
2022/10/23 07:12:53;;;;;;;41.83;25.35;;;;;;;;;;5036394;28;20033;-61
2022/10/23 07:15:19;;;;;;;50.42;27.65;;;;;;;;;;5033163;28;20041;-61
2022/10/23 07:17:44;;;;;;;46.72;28.50;;;10.60;99.90;;;;;;5035949;28;20140;-61
2022/10/23 07:20:10;;;;;;;40.30;26.15;;;10.70;99.90;;;;;;5037322;28;20112;-61
2022/10/23 07:22:37;;;;;;;44.10;26.33;;;10.50;99.90;;;;;;5037085;28;20486;-61
2022/10/23 07:25:03;;;;;;;37.10;24.17;;;10.90;99.90;;;;;;5038744;28;20046;-61
2022/10/23 07:27:35;;;;;;;40.35;25.50;;;10.90;99.90;;;;;;5038917;28;20045;-61
2022/10/23 07:30:00;;;;;;;44.13;27.25;;;11.00;99.90;;;;;;5018545;28;20075;-61
2022/10/23 07:32:27;;;;;;;52.28;28.88;;;10.90;99.90;;;;;;5033488;28;20406;-61
2022/10/23 07:34:53;;;;;;;38.28;26.23;;;11.00;99.90;;;;;;5046539;28;20499;-61
2022/10/23 07:37:19;;;;;;;52.10;32.05;;;;;;;;;;5038590;28;20048;-61
2022/10/23 07:39:44;;;;;;;46.75;27.48;;;;;;;;;;5036051;28;20040;-60
2022/10/23 07:42:10;;;;;;;42.00;25.77;;;11.00;99.90;;;;;;5037264;28;20506;-61
2022/10/23 07:44:36;;;;;;;42.22;23.33;;;11.30;99.90;;;;;;5034817;28;20037;-61
2022/10/23 07:47:02;;;;;;;39.55;25.88;;;11.30;99.90;;;;;;5035862;28;20038;-60
2022/10/23 07:49:28;;;;;;;50.67;27.40;;;;;;;;;;5040648;28;20494;-63
2022/10/23 07:51:53;;;;;;;44.83;23.98;;;11.40;99.90;;;;;;5038512;28;20069;-59
2022/10/23 07:54:19;;;;;;;46.10;24.98;;;11.40;99.90;;;;;;5046000;28;20060;-58
2022/10/23 07:56:48;;;;;;;41.72;25.08;;;;;;;;;;5046431;28;20033;-61
2022/10/23 07:59:14;;;;;;;42.35;26.42;;;;;;;;;;5028345;28;20044;-61
2022/10/23 08:01:45;;;;;;;44.78;25.55;;;;;;;;;;5041340;28;20037;-62
2022/10/23 08:04:11;;;;;;;45.75;25.58;;;11.60;99.90;;;;;;5034021;28;20176;-61
2022/10/23 08:06:37;;;;;;;42.22;25.67;;;11.60;99.90;;;;;;5033136;28;20041;-63
2022/10/23 08:09:03;;;;;;;42.97;22.73;;;;;;;;;;5026882;28;20048;-61
2022/10/23 08:11:34;;;;;;;34.90;23.55;;;;;;;;;;5048407;28;20169;-62
2022/10/23 08:14:03;;;;;;;39.85;24.48;;;12.40;99.90;;;;;;5045121;28;20049;-62
2022/10/23 08:16:33;;;;;;;34.88;23.02;;;11.40;99.90;;;;;;5046881;28;20503;-61
2022/10/23 08:18:59;;;;;;;36.83;22.15;;;11.40;99.90;;;;;;5042936;28;20068;-60
2022/10/23 08:21:25;;;;;;;34.10;22.90;;;12.40;99.90;;;;;;5030291;28;20467;-62
2022/10/23 08:23:54;;;;;;;33.70;22.92;;;;;;;;;;5047199;28;20640;-61
2022/10/23 08:26:20;;;;;;;36.25;22.42;;;;;;;;;;5046319;28;20371;-60
2022/10/23 08:28:46;;;;;;;36.60;22.52;;;;;;;;;;5046174;28;20033;-61
2022/10/23 08:31:13;;;;;;;33.35;23.23;;;;;;;;;;5033230;28;20086;-62
2022/10/23 08:33:39;;;;;;;40.78;24.52;;;12.90;99.90;;;;;;5035865;28;20116;-61
2022/10/23 08:36:16;;;;;;;31.73;19.30;;;12.80;99.90;;;;;;5039112;28;20136;-62
2022/10/23 08:38:42;;;;;;;30.05;20.75;;;12.60;99.90;;;;;;5046517;28;20384;-62
2022/10/23 08:41:24;;;;;;;26.48;18.60;;;;;;;;;;5041586;28;20033;-62
2022/10/23 08:43:59;;;;;;;30.88;21.00;;;12.50;99.90;;;;;;5030304;28;20483;-62
2022/10/23 08:46:31;;;;;;;28.65;20.35;;;;;;;;;;5027769;28;20120;-61
2022/10/23 08:49:17;;;;;;;30.73;20.45;;;;;;;;;;5027542;28;20048;-62
2022/10/23 08:51:49;;;;;;;29.52;19.60;;;13.00;99.90;;;;;;5030202;28;20099;-61
2022/10/23 08:54:15;;;;;;;25.75;17.88;;;12.90;99.90;;;;;;5030395;28;20041;-62
2022/10/23 08:56:43;;;;;;;27.92;16.08;;;;;;;;;;5030114;28;20125;-62
2022/10/23 08:59:21;;;;;;;25.20;17.08;;;13.60;99.90;;;;;;5028563;28;20045;-61
2022/10/23 09:01:55;;;;;;;23.70;15.80;;;13.90;99.90;;;;;;5029006;28;20043;-59
2022/10/23 09:04:21;;;;;;;20.65;15.82;;;13.80;99.90;;;;;;5028010;28;20034;-62
2022/10/23 09:07:09;;;;;;;21.90;15.20;;;13.30;99.90;;;;;;5030082;28;20380;-61
2022/10/23 09:09:58;;;;;;;25.42;14.77;;;13.70;99.90;;;;;;5032020;28;20033;-63
2022/10/23 09:12:28;;;;;;;23.55;13.57;;;13.60;99.90;;;;;;5032703;28;20036;-62
2022/10/23 09:15:18;;;;;;;22.80;14.02;;;14.30;99.90;;;;;;5015792;28;20107;-64
2022/10/23 09:17:45;;;;;;;19.52;14.05;;;13.20;99.90;;;;;;5030874;28;20037;-62
2022/10/23 09:20:17;;;;;;;18.80;13.57;;;;;;;;;;5031972;28;20422;-60
2022/10/23 09:22:47;;;;;;;19.38;12.98;;;14.00;99.90;;;;;;5031136;28;20490;-62
2022/10/23 09:25:25;;;;;;;22.23;13.98;;;;;;;;;;5034475;28;20411;-62
2022/10/23 09:27:55;;;;;;;18.10;12.88;;;;;;;;;;5015029;28;20065;-62
2022/10/23 09:30:30;;;;;;;16.95;11.80;;;;;;;;;;5033375;28;20113;-64
2022/10/23 09:32:56;;;;;;;17.10;12.63;;;14.50;99.90;;;;;;5011719;23;20294;-65
2022/10/23 09:35:24;;;;;;;18.35;11.90;;;13.80;99.90;;;;;;5019717;28;20483;-65
2022/10/23 09:37:53;;;;;;;19.75;11.65;;;13.90;99.90;;;;;;5030833;28;20045;-65
2022/10/23 09:40:32;;;;;;;15.63;10.95;;;14.80;99.90;;;;;;5031090;28;20042;-65
2022/10/23 09:43:12;;;;;;;14.73;10.02;;;14.00;99.90;;;;;;5037634;28;20041;-65
2022/10/23 09:45:41;;;;;;;13.02;9.77;;;14.60;99.90;;;;;;5034364;28;20041;-65
2022/10/23 09:48:17;;;;;;;15.80;10.73;;;14.20;99.90;;;;;;5030676;28;20045;-64
2022/10/23 09:50:49;;;;;;;15.10;10.15;;;14.10;99.90;;;;;;5038312;28;20039;-65
2022/10/23 09:53:20;;;;;;;16.20;10.82;;;15.10;99.90;;;;;;5038084;28;20051;-65
2022/10/23 09:55:55;;;;;;;15.65;9.85;;;14.70;99.90;;;;;;5034628;28;20110;-65
2022/10/23 09:58:32;;;;;;;13.77;9.85;;;14.90;99.90;;;;;;5037490;28;20037;-65
2022/10/23 10:00:57;;;;;;;15.73;8.98;;;14.80;99.90;;;;;;5031621;28;20116;-65
2022/10/23 10:03:25;;;;;;;15.60;8.93;;;14.90;99.90;;;;;;5032926;28;20043;-65
2022/10/23 10:05:58;;;;;;;11.30;8.18;;;15.20;99.90;;;;;;5048878;28;20037;-64
2022/10/23 10:08:36;;;;;;;16.05;8.90;;;15.40;99.90;;;;;;5042384;28;20037;-65
2022/10/23 10:11:26;;;;;;;14.18;8.38;;;15.50;99.90;;;;;;5043983;28;20040;-65
2022/10/23 10:14:08;;;;;;;14.13;8.10;;;15.00;99.90;;;;;;5041404;28;20495;-65
2022/10/23 10:16:39;;;;;;;14.95;7.97;;;15.30;99.90;;;;;;5046749;28;20041;-65
2022/10/23 10:19:29;;;;;;;13.38;7.25;;;14.70;99.90;;;;;;5046411;28;20073;-64
2022/10/23 10:22:21;;;;;;;12.32;8.45;;;14.70;99.90;;;;;;5041989;28;20033;-65
2022/10/23 10:25:04;;;;;;;16.40;9.23;;;15.50;99.90;;;;;;5069366;22;20182;-66
2022/10/23 10:27:43;;;;;;;13.75;7.75;;;15.30;99.90;;;;;;5077189;28;20044;-66
2022/10/23 10:30:24;;;;;;;13.43;7.88;;;16.00;99.90;;;;;;5070783;28;20624;-66
2022/10/23 10:33:03;;;;;;;11.15;7.70;;;15.70;99.90;;;;;;5070768;28;20029;-66
2022/10/23 10:36:17;;;;;;;12.68;7.00;;;15.90;99.90;;;;;;5072136;28;20564;-66
2022/10/23 10:39:11;;;;;;;10.18;6.53;;;15.00;99.90;;;;;;5058043;28;20036;-66
2022/10/23 10:41:56;;;;;;;10.10;6.53;;;16.10;99.90;;;;;;5059035;28;20105;-67
2022/10/23 10:44:49;;;;;;;10.52;6.53;;;15.70;99.90;;;;;;5076896;28;20388;-65
2022/10/23 10:47:21;;;;;;;12.55;7.28;;;;;;;;;;5083878;28;20089;-64
2022/10/23 10:50:02;;;;;;;10.93;6.10;;;16.20;99.90;;;;;;5080521;28;20040;-65
2022/10/23 10:52:46;;;;;;;10.52;6.05;;;15.60;99.90;;;;;;5073534;28;20040;-65
2022/10/23 10:55:32;;;;;;;11.50;5.70;;;16.30;99.90;;;;;;5060483;28;20070;-66
2022/10/23 10:58:15;;;;;;;10.15;5.40;;;16.30;99.90;;;;;;5079713;28;20409;-65
2022/10/23 11:00:42;;;;;;;10.65;5.25;;;16.90;99.90;;;;;;5091447;28;20373;-66
2022/10/23 11:03:26;;;;;;;10.32;5.40;;;16.90;99.90;;;;;;5087688;28;20033;-66
2022/10/23 11:05:54;;;;;;;11.73;5.90;;;16.40;99.90;;;;;;5090903;28;20035;-65
2022/10/23 11:08:31;;;;;;;11.32;5.50;;;16.90;99.90;;;;;;5068583;28;20038;-66
2022/10/23 11:11:03;;;;;;;10.50;5.45;;;17.10;99.90;;;;;;5082013;28;20034;-65
2022/10/23 11:13:39;;;;;;;10.13;5.68;;;16.70;99.90;;;;;;5086221;28;20115;-66
2022/10/23 11:16:18;;;;;;;8.82;5.10;;;16.90;99.90;;;;;;5084097;28;20485;-65
2022/10/23 11:18:50;;;;;;;11.07;5.47;;;16.50;99.90;;;;;;5077053;28;20052;-65
2022/10/23 11:21:33;;;;;;;10.73;5.20;;;17.00;99.90;;;;;;5073728;28;20381;-65
2022/10/23 11:24:13;;;;;;;8.88;5.20;;;16.70;99.90;;;;;;5073959;28;20509;-66
2022/10/23 11:27:00;;;;;;;8.60;5.03;;;16.20;99.90;;;;;;5069982;28;20116;-66
2022/10/23 11:29:31;;;;;;;8.52;4.80;;;16.60;99.90;;;;;;5069087;28;20047;-66
2022/10/23 11:32:10;;;;;;;17.08;5.38;;;16.90;99.90;;;;;;5070402;28;20041;-66
2022/10/23 11:34:45;;;;;;;9.15;3.92;;;17.20;99.90;;;;;;5051131;28;20052;-65
2022/10/23 11:37:17;;;;;;;9.98;4.57;;;16.80;99.90;;;;;;5072597;28;20040;-66
2022/10/23 11:40:16;;;;;;;9.43;4.40;;;16.90;99.90;;;;;;5080300;28;20040;-66
2022/10/23 11:42:41;;;;;;;6.88;3.63;;;16.90;99.90;;;;;;5088163;28;20056;-66
2022/10/23 11:45:30;;;;;;;7.85;4.10;;;17.10;99.90;;;;;;5090311;28;20036;-66
2022/10/23 11:48:02;;;;;;;8.80;4.35;;;16.80;99.90;;;;;;5086723;28;20044;-66
2022/10/23 11:50:31;;;;;;;8.00;3.60;;;17.10;99.90;;;;;;5072251;28;20047;-64
2022/10/23 11:53:09;;;;;;;7.30;3.88;;;16.80;99.90;;;;;;5086684;28;20050;-65
2022/10/23 11:55:36;;;;;;;7.75;3.70;;;17.30;99.90;;;;;;5089204;28;20039;-65
2022/10/23 11:58:20;;;;;;;7.03;3.33;;;17.10;99.90;;;;;;5081153;28;20043;-64
2022/10/23 12:00:57;;;;;;;8.45;4.07;;;16.80;99.90;;;;;;5055680;28;20036;-65
2022/10/23 12:03:46;;;;;;;7.82;3.38;;;16.70;99.90;;;;;;5069909;28;20124;-66
2022/10/23 12:06:22;;;;;;;7.43;3.40;;;17.00;99.90;;;;;;5068814;28;20484;-65
2022/10/23 12:08:55;;;;;;;6.65;3.65;;;16.90;99.90;;;;;;5068855;28;20054;-66
2022/10/23 12:11:38;;;;;;;7.40;3.30;;;17.10;99.90;;;;;;5067916;28;20035;-66
2022/10/23 12:14:03;;;;;;;7.90;3.88;;;17.00;99.90;;;;;;5066656;28;20036;-65
2022/10/23 12:16:35;;;;;;;17.17;5.07;;;17.10;99.90;;;;;;5048617;28;20032;-66
2022/10/23 12:19:23;;;;;;;8.13;3.88;;;17.10;99.90;;;;;;5073537;28;20040;-66
2022/10/23 12:21:57;;;;;;;6.47;3.28;;;16.70;99.90;;;;;;5072126;28;20047;-66
2022/10/23 12:24:47;;;;;;;7.78;4.05;;;17.10;99.90;;;;;;5071834;28;20042;-65
2022/10/23 12:27:23;;;;;;;11.38;4.38;;;16.60;99.90;;;;;;5088940;28;20040;-65
2022/10/23 12:30:08;;;;;;;11.10;3.97;;;16.80;99.90;;;;;;5087190;28;20116;-66
2022/10/23 12:32:54;;;;;;;7.85;3.80;;;16.80;99.90;;;;;;5087116;28;20036;-66
2022/10/23 12:35:46;;;;;;;7.28;3.25;;;16.10;99.90;;;;;;5085342;28;20071;-66
2022/10/23 12:38:22;;;;;;;13.13;3.90;;;16.60;99.90;;;;;;5080730;28;20062;-66
2022/10/23 12:41:08;;;;;;;11.38;4.57;;;16.70;99.90;;;;;;5089736;28;21516;-66
2022/10/23 12:43:36;;;;;;;6.93;3.35;;;16.40;99.90;;;;;;5074178;28;20447;-66
2022/10/23 12:46:27;;;;;;;9.20;3.80;;;17.40;99.90;;;;;;5075149;28;20048;-66
2022/10/23 12:48:55;;;;;;;11.32;4.00;;;16.60;99.90;;;;;;5070171;28;20051;-66
2022/10/23 12:51:30;;;;;;;6.85;3.22;;;16.10;99.90;;;;;;5093614;28;20032;-65
2022/10/23 12:53:56;;;;;;;6.95;3.33;;;17.30;99.90;;;;;;5066063;28;20043;-66
2022/10/23 12:56:24;;;;;;;8.07;3.10;;;16.80;99.90;;;;;;5075112;28;20036;-66
2022/10/23 12:58:54;;;;;;;7.43;2.90;;;16.80;99.90;;;;;;5093244;28;20160;-66
2022/10/23 13:01:28;;;;;;;7.25;3.45;;;17.10;99.90;;;;;;5093442;28;20032;-66
2022/10/23 13:04:30;;;;;;;7.55;3.28;;;16.90;99.90;;;;;;5081923;28;20431;-66
2022/10/23 13:07:01;;;;;;;8.32;3.47;;;17.00;99.90;;;;;;5089423;28;20083;-65
2022/10/23 13:09:31;;;;;;;8.27;3.20;;;16.40;99.90;;;;;;5093620;28;20400;-65
2022/10/23 13:11:59;;;;;;;7.85;2.80;;;16.90;99.90;;;;;;5075453;28;20439;-66
2022/10/23 13:14:45;;;;;;;7.35;3.00;;;;;;;;;;5087396;28;20032;-65
2022/10/23 13:17:11;;;;;;;7.97;3.35;;;16.40;99.90;;;;;;5072713;28;20455;-66
2022/10/23 13:19:37;;;;;;;7.18;3.20;;;16.10;99.90;;;;;;5092115;28;20040;-65
2022/10/23 13:22:12;;;;;;;5.45;3.00;;;16.90;99.90;;;;;;5081150;28;20068;-65
2022/10/23 13:24:39;;;;;;;9.88;3.83;;;16.50;99.90;;;;;;5074484;28;20036;-66
2022/10/23 13:27:33;;;;;;;9.35;3.00;;;16.70;99.90;;;;;;5062872;28;20042;-66
2022/10/23 13:29:59;;;;;;;10.30;3.85;;;16.60;99.90;;;;;;5084149;28;20024;-66
2022/10/23 13:32:28;;;;;;;7.50;2.97;;;15.80;99.90;;;;;;5087622;28;20050;-66
2022/10/23 13:34:58;;;;;;;7.72;3.25;;;16.00;99.90;;;;;;5089341;28;20392;-66